createdAt,value
2023-05-05T03:59:11.080Z,60.00
2023-05-05T04:00:11.030Z,68.00
2023-05-05T04:01:11.035Z,76.00
2023-05-05T04:02:11.033Z,88.00
2023-05-05T04:03:11.293Z,100.00
2023-05-05T04:04:11.021Z,108.00
2023-05-05T04:05:10.998Z,120.00
2023-05-05T04:06:11.004Z,128.00
2023-05-05T04:07:10.985Z,136.00
2023-05-05T04:08:10.984Z,140.00
2023-05-05T04:09:10.971Z,148.00
2023-05-05T04:10:11.020Z,156.00
2023-05-05T04:11:10.989Z,164.00
2023-05-05T04:12:10.959Z,168.00
2023-05-05T04:13:11.104Z,172.00
2023-05-05T04:14:10.954Z,176.00
2023-05-05T04:15:10.989Z,184.00
2023-05-05T04:16:11.001Z,184.00
2023-05-05T04:17:10.955Z,192.00
2023-05-05T04:18:11.004Z,200.00
2023-05-05T04:19:10.943Z,204.00
2023-05-05T04:20:11.072Z,208.00
2023-05-05T04:21:10.957Z,220.00
2023-05-05T04:22:10.926Z,224.00
2023-05-05T04:23:10.913Z,232.00
2023-05-05T04:24:10.898Z,240.00
2023-05-05T04:25:10.909Z,248.00
2023-05-05T04:26:10.900Z,260.00
2023-05-05T04:27:10.902Z,264.00
2023-05-05T04:28:10.894Z,276.00
2023-05-05T04:29:10.901Z,284.00
2023-05-05T04:30:10.901Z,296.00
2023-05-05T04:31:10.946Z,308.00
2023-05-05T04:32:10.893Z,320.00
2023-05-05T04:33:10.883Z,332.00
2023-05-05T04:34:10.869Z,348.00
2023-05-05T04:35:10.865Z,368.00
2023-05-05T04:36:10.857Z,380.00
2023-05-05T04:37:10.882Z,396.00
2023-05-05T04:38:10.854Z,412.00
2023-05-05T04:39:10.856Z,432.00
2023-05-05T04:40:10.853Z,452.00
2023-05-05T04:41:10.828Z,472.00
2023-05-05T04:42:10.864Z,492.00
2023-05-05T04:43:10.830Z,524.00
2023-05-05T04:44:10.852Z,552.00
2023-05-05T04:45:10.818Z,576.00
2023-05-05T04:46:10.879Z,600.00
2023-05-05T04:47:12.606Z,628.00
2023-05-05T04:48:10.835Z,656.00
2023-05-05T04:49:10.830Z,684.00
2023-05-05T04:50:10.943Z,708.00
2023-05-05T04:51:10.812Z,724.00
2023-05-05T04:52:10.798Z,748.00
2023-05-05T04:53:10.806Z,796.00
2023-05-05T04:54:10.794Z,832.00
2023-05-05T04:55:10.778Z,832.00
2023-05-05T04:56:10.787Z,848.00
2023-05-05T04:57:10.790Z,872.00
2023-05-05T04:58:10.796Z,888.00
2023-05-05T04:59:10.791Z,900.00
2023-05-05T05:00:10.934Z,928.00
2023-05-05T05:01:10.755Z,988.00
2023-05-05T05:02:10.827Z,1040.00
2023-05-05T05:03:10.869Z,1068.00
2023-05-05T05:04:10.766Z,1060.00
2023-05-05T05:05:10.755Z,924.00
2023-05-05T05:06:10.744Z,984.00
2023-05-05T05:07:10.754Z,964.00
2023-05-05T05:08:10.749Z,1000.00
2023-05-05T05:09:10.758Z,1048.00
2023-05-05T05:10:10.956Z,1108.00
2023-05-05T05:11:10.752Z,1236.00
2023-05-05T05:12:10.731Z,1312.00
2023-05-05T05:13:12.771Z,1440.00
2023-05-05T05:14:10.736Z,1516.00
2023-05-05T05:15:10.715Z,1604.00
2023-05-05T05:16:10.756Z,1644.00
2023-05-05T05:17:10.712Z,1672.00
2023-05-05T05:18:10.729Z,1752.00
2023-05-05T05:19:10.736Z,1836.00
2023-05-05T05:20:10.924Z,1968.00
2023-05-05T05:21:10.711Z,2120.00
2023-05-05T05:22:10.688Z,2176.00
2023-05-05T05:23:10.694Z,2168.00
2023-05-05T05:24:10.708Z,2156.00
2023-05-05T05:25:10.679Z,2156.00
2023-05-05T05:26:10.677Z,2164.00
2023-05-05T05:27:10.692Z,2236.00
2023-05-05T05:28:11.145Z,2292.00
2023-05-05T05:29:10.682Z,2284.00
2023-05-05T05:30:10.722Z,2272.00
2023-05-05T05:31:10.678Z,2228.00
2023-05-05T05:32:10.700Z,2124.00
2023-05-05T05:33:10.801Z,2044.00
2023-05-05T05:34:12.699Z,2100.00
2023-05-05T05:35:10.695Z,2072.00
2023-05-05T05:36:10.650Z,1960.00
2023-05-05T05:37:10.694Z,1864.00
2023-05-05T05:38:10.641Z,1788.00
2023-05-05T05:39:10.649Z,1552.00
2023-05-05T05:40:10.713Z,1396.00
2023-05-05T05:41:10.622Z,1416.00
2023-05-05T05:42:10.645Z,1128.00
2023-05-05T05:43:10.645Z,1020.00
2023-05-05T05:44:10.656Z,988.00
2023-05-05T05:45:10.678Z,812.00
2023-05-05T05:46:10.704Z,540.00
2023-05-05T05:47:10.636Z,440.00
2023-05-05T05:48:10.830Z,368.00
2023-05-05T05:49:10.662Z,312.00
2023-05-05T05:50:10.760Z,276.00
2023-05-05T05:51:10.669Z,252.00
2023-05-05T05:52:10.647Z,236.00
2023-05-05T05:53:10.668Z,232.00
2023-05-05T05:54:10.601Z,224.00
2023-05-05T05:55:10.625Z,220.00
2023-05-05T05:56:10.794Z,228.00
2023-05-05T05:57:10.647Z,228.00
2023-05-05T05:58:10.667Z,232.00
2023-05-05T05:59:10.583Z,248.00
2023-05-05T06:00:10.727Z,268.00
2023-05-05T06:01:10.648Z,292.00
2023-05-05T06:02:10.684Z,324.00
2023-05-05T06:03:10.693Z,348.00
2023-05-05T06:04:10.700Z,364.00
2023-05-05T06:05:10.565Z,404.00
2023-05-05T06:06:10.600Z,424.00
2023-05-05T06:07:10.561Z,424.00
2023-05-05T06:08:10.557Z,404.00
2023-05-05T06:09:10.553Z,384.00
2023-05-05T06:10:25.723Z,364.00
2023-05-05T06:11:10.597Z,352.00
2023-05-05T06:12:10.554Z,336.00
2023-05-05T06:13:10.646Z,324.00
2023-05-05T06:14:10.536Z,324.00
2023-05-05T06:15:10.532Z,328.00
2023-05-05T06:16:10.580Z,344.00
2023-05-05T06:17:10.521Z,348.00
2023-05-05T06:18:10.613Z,344.00
2023-05-05T06:19:10.527Z,344.00
2023-05-05T06:20:10.535Z,356.00
2023-05-05T06:21:10.538Z,352.00
2023-05-05T06:22:10.527Z,332.00
2023-05-05T06:23:10.514Z,308.00
2023-05-05T06:24:10.501Z,272.00
2023-05-05T06:25:10.512Z,236.00
2023-05-05T06:26:10.494Z,212.00
2023-05-05T06:27:10.536Z,188.00
2023-05-05T06:28:10.517Z,164.00
2023-05-05T06:29:12.219Z,140.00
2023-05-05T06:30:10.753Z,124.00
2023-05-05T06:31:10.555Z,108.00
2023-05-05T06:32:10.477Z,100.00
2023-05-05T06:33:10.469Z,100.00
2023-05-05T06:34:10.471Z,100.00
2023-05-05T06:35:10.494Z,104.00
2023-05-05T06:36:10.524Z,112.00
2023-05-05T06:37:10.487Z,120.00
2023-05-05T06:39:43.022Z,168.00
2023-05-05T06:40:43.002Z,204.00
2023-05-05T06:41:42.992Z,240.00
2023-05-05T06:42:42.964Z,288.00
2023-05-05T06:43:42.969Z,308.00
2023-05-05T06:44:42.968Z,316.00
2023-05-05T06:45:43.873Z,328.00
2023-05-05T06:46:43.021Z,320.00
2023-05-05T06:47:42.987Z,316.00
2023-05-05T06:48:42.952Z,328.00
2023-05-05T06:49:42.941Z,348.00
2023-05-05T06:50:42.950Z,376.00
2023-05-05T06:51:43.122Z,416.00
2023-05-05T06:52:42.983Z,444.00
2023-05-05T06:53:42.940Z,456.00
2023-05-05T06:54:42.929Z,468.00
2023-05-05T06:55:43.043Z,468.00
2023-05-05T06:56:42.939Z,472.00
2023-05-05T06:57:42.915Z,492.00
2023-05-05T06:58:42.917Z,512.00
2023-05-05T06:59:42.911Z,512.00
2023-05-05T07:00:42.976Z,516.00
2023-05-05T07:01:42.905Z,552.00
2023-05-05T07:02:42.965Z,628.00
2023-05-05T07:03:42.991Z,768.00
2023-05-05T07:04:43.004Z,968.00
2023-05-05T07:05:42.920Z,1176.00
2023-05-05T07:06:42.905Z,1388.00
2023-05-05T07:07:42.885Z,1572.00
2023-05-05T07:08:42.891Z,1688.00
2023-05-05T07:09:42.895Z,1752.00
2023-05-05T07:10:42.895Z,1852.00
2023-05-05T07:11:42.974Z,1920.00
2023-05-05T07:12:42.904Z,1940.00
2023-05-05T07:13:42.868Z,1912.00
2023-05-05T07:14:42.883Z,1840.00
2023-05-05T07:15:42.876Z,1776.00
2023-05-05T07:16:42.911Z,1776.00
2023-05-05T07:17:42.919Z,1864.00
2023-05-05T07:18:42.864Z,1984.00
2023-05-05T07:19:42.854Z,2132.00
2023-05-05T07:20:43.374Z,2264.00
2023-05-05T07:21:42.848Z,2352.00
2023-05-05T07:22:42.878Z,2452.00
2023-05-05T07:23:43.065Z,2796.00
2023-05-05T07:24:42.848Z,2676.00
2023-05-05T07:25:42.845Z,3092.00
2023-05-05T07:26:42.854Z,2416.00
2023-05-05T07:27:43.020Z,2224.00
2023-05-05T07:28:42.869Z,2084.00
2023-05-05T07:29:42.854Z,2008.00
2023-05-05T07:30:42.830Z,1684.00
2023-05-05T07:31:42.977Z,1468.00
2023-05-05T07:32:42.977Z,1344.00
2023-05-05T07:33:42.926Z,1332.00
2023-05-05T07:34:42.860Z,1324.00
2023-05-05T07:35:42.966Z,1368.00
2023-05-05T07:36:42.875Z,1440.00
2023-05-05T07:37:42.826Z,1504.00
2023-05-05T07:38:42.895Z,1604.00
2023-05-05T07:39:42.899Z,1772.00
2023-05-05T07:40:42.821Z,1948.00
2023-05-05T07:41:42.958Z,2108.00
2023-05-05T07:42:42.805Z,2252.00
2023-05-05T07:43:44.486Z,2372.00
2023-05-05T07:44:42.854Z,2432.00
2023-05-05T07:45:42.911Z,2448.00
2023-05-05T07:46:42.838Z,2432.00
2023-05-05T07:47:42.834Z,2384.00
2023-05-05T07:48:42.820Z,2312.00
2023-05-05T07:49:42.797Z,2236.00
2023-05-05T07:50:42.810Z,2168.00
2023-05-05T07:51:43.949Z,2128.00
2023-05-05T07:52:46.758Z,2132.00
2023-05-05T07:53:42.776Z,2152.00
2023-05-05T07:54:42.770Z,2240.00
2023-05-05T07:55:42.809Z,2384.00
2023-05-05T07:56:42.762Z,2496.00
2023-05-05T07:57:43.002Z,2576.00
2023-05-05T07:58:42.779Z,2648.00
2023-05-05T07:59:42.894Z,2696.00
2023-05-05T08:00:42.743Z,2740.00
2023-05-05T08:01:42.798Z,2792.00
2023-05-05T08:02:42.829Z,2832.00
2023-05-05T08:03:42.886Z,3004.00
2023-05-05T08:04:42.895Z,3052.00
2023-05-05T08:05:42.780Z,3276.00
2023-05-05T08:06:42.734Z,3436.00
2023-05-05T08:07:42.727Z,3304.00
2023-05-05T08:08:42.730Z,3028.00
2023-05-05T08:09:42.738Z,2712.00
2023-05-05T08:10:42.722Z,2528.00
2023-05-05T08:11:42.733Z,2420.00
2023-05-05T08:12:42.765Z,2416.00
2023-05-05T08:13:42.784Z,2508.00
2023-05-05T08:14:42.776Z,2628.00
2023-05-05T08:15:42.892Z,2676.00
2023-05-05T08:16:42.720Z,2652.00
2023-05-05T08:17:42.769Z,2652.00
2023-05-05T08:18:42.753Z,2672.00
2023-05-05T08:19:42.804Z,2680.00
2023-05-05T08:20:42.739Z,2680.00
2023-05-05T08:21:42.719Z,2728.00
2023-05-05T08:22:42.712Z,2756.00
2023-05-05T08:23:42.734Z,2800.00
2023-05-05T08:24:42.747Z,2820.00
2023-05-05T08:25:42.709Z,2832.00
2023-05-05T08:26:42.702Z,2868.00
2023-05-05T08:27:42.693Z,2856.00
2023-05-05T08:28:42.785Z,2860.00
2023-05-05T08:29:42.713Z,2916.00
2023-05-05T08:30:42.769Z,3168.00
2023-05-05T08:31:42.933Z,3816.00
2023-05-05T08:32:42.792Z,4096.00
2023-05-05T08:33:42.703Z,4136.00
2023-05-05T08:34:42.698Z,4436.00
2023-05-05T08:35:42.710Z,4280.00
2023-05-05T08:36:42.719Z,4396.00
2023-05-05T08:37:42.688Z,4400.00
2023-05-05T08:38:42.687Z,3748.00
2023-05-05T08:39:42.697Z,3800.00
2023-05-05T08:40:42.686Z,3660.00
2023-05-05T08:41:42.817Z,3488.00
2023-05-05T08:42:42.687Z,3528.00
2023-05-05T08:43:42.664Z,3604.00
2023-05-05T08:44:43.404Z,3736.00
2023-05-05T08:45:42.673Z,3872.00
2023-05-05T08:46:42.759Z,3632.00
2023-05-05T08:47:42.811Z,3624.00
2023-05-05T08:48:42.747Z,3572.00
2023-05-05T08:49:42.715Z,3652.00
2023-05-05T08:50:42.718Z,3376.00
2023-05-05T08:51:42.733Z,3396.00
2023-05-05T08:52:42.746Z,3536.00
2023-05-05T08:53:42.660Z,3460.00
2023-05-05T08:54:42.655Z,3556.00
2023-05-05T08:55:42.665Z,3680.00
2023-05-05T08:57:42.640Z,4348.00
2023-05-05T08:58:42.698Z,4428.00
2023-05-05T08:59:42.660Z,4100.00
2023-05-05T09:01:42.655Z,4228.00
2023-05-05T09:02:42.749Z,4760.00
2023-05-05T09:03:43.633Z,4552.00
2023-05-05T09:04:42.642Z,4004.00
2023-05-05T09:05:42.709Z,4176.00
2023-05-05T09:07:42.647Z,4920.00
2023-05-05T09:08:42.637Z,4840.00
2023-05-05T09:09:42.726Z,4780.00
2023-05-05T09:10:42.741Z,4860.00
2023-05-05T09:13:15.350Z,3572.00
2023-05-05T09:14:15.291Z,3556.00
2023-05-05T09:15:15.317Z,3656.00
2023-05-05T09:16:15.327Z,3740.00
2023-05-05T09:17:15.203Z,4336.00
2023-05-05T09:18:15.224Z,4116.00
2023-05-05T09:19:15.269Z,4492.00
2023-05-05T09:20:15.233Z,4572.00
2023-05-05T09:21:15.289Z,4720.00
2023-05-05T09:22:15.236Z,4664.00
2023-05-05T09:23:15.203Z,4872.00
2023-05-05T09:24:15.483Z,4840.00
2023-05-05T09:25:15.211Z,4628.00
2023-05-05T09:26:15.983Z,4200.00
2023-05-05T09:27:16.298Z,4856.00
2023-05-05T09:28:15.898Z,5032.00
2023-05-05T09:29:15.305Z,5072.00
2023-05-05T09:30:15.224Z,4924.00
2023-05-05T09:31:15.222Z,4968.00
2023-05-05T09:32:15.373Z,5112.00
2023-05-05T09:33:15.296Z,5160.00
2023-05-05T09:34:15.225Z,4660.00
2023-05-05T09:35:15.453Z,4588.00
2023-05-05T09:36:15.274Z,4328.00
2023-05-05T09:37:15.267Z,4588.00
2023-05-05T09:38:15.230Z,4480.00
2023-05-05T09:39:15.274Z,4368.00
2023-05-05T09:40:15.613Z,4004.00
2023-05-05T09:41:15.219Z,3960.00
2023-05-05T09:42:15.196Z,3960.00
2023-05-05T09:43:15.210Z,4288.00
2023-05-05T09:44:15.986Z,4592.00
2023-05-05T09:45:15.229Z,4252.00
2023-05-05T09:46:15.293Z,4036.00
2023-05-05T09:47:28.473Z,3812.00
2023-05-05T09:48:15.391Z,3980.00
2023-05-05T09:49:15.202Z,4248.00
2023-05-05T09:50:15.246Z,4172.00
2023-05-05T09:51:15.296Z,4160.00
2023-05-05T09:52:15.176Z,4104.00
2023-05-05T09:53:15.233Z,4012.00
2023-05-05T09:54:15.259Z,4128.00
2023-05-05T09:55:15.180Z,4016.00
2023-05-05T09:56:15.222Z,3772.00
2023-05-05T09:57:15.244Z,3324.00
2023-05-05T09:58:15.275Z,3244.00
2023-05-05T09:59:15.242Z,4056.00
2023-05-05T10:00:15.224Z,4052.00
2023-05-05T10:01:15.237Z,4080.00
2023-05-05T10:02:15.322Z,3960.00
2023-05-05T10:13:33.402Z,3640.00
2023-05-05T10:14:33.546Z,3800.00
2023-05-05T10:15:33.235Z,3840.00
2023-05-05T10:16:33.356Z,3912.00
2023-05-05T10:17:33.281Z,3852.00
2023-05-05T10:19:33.276Z,3980.00
2023-05-05T10:20:33.315Z,4036.00
2023-05-05T10:21:33.239Z,3944.00
2023-05-05T10:22:33.229Z,4048.00
2023-05-05T10:24:33.235Z,4312.00
2023-05-05T10:25:33.401Z,4120.00
2023-05-05T10:26:33.237Z,4288.00
2023-05-05T10:27:33.297Z,4452.00
2023-05-05T10:28:33.295Z,4460.00
2023-05-05T10:29:33.303Z,4620.00
2023-05-05T10:30:35.778Z,4636.00
2023-05-05T10:31:34.208Z,4572.00
2023-05-05T10:33:33.401Z,4140.00
2023-05-05T10:34:33.312Z,3660.00
2023-05-05T10:35:33.249Z,3432.00
2023-05-05T10:36:33.282Z,3924.00
2023-05-05T10:37:33.246Z,4052.00
2023-05-05T10:38:33.391Z,4136.00
2023-05-05T10:39:33.254Z,4280.00
2023-05-05T10:40:33.309Z,4256.00
2023-05-05T10:41:33.245Z,4276.00
2023-05-05T10:42:33.236Z,4276.00
2023-05-05T10:43:33.251Z,4300.00
2023-05-05T10:44:33.237Z,4320.00
2023-05-05T10:45:33.461Z,4320.00
2023-05-05T10:46:33.370Z,4304.00
2023-05-05T10:47:33.275Z,4272.00
2023-05-05T10:48:33.301Z,4268.00
2023-05-05T10:49:33.404Z,4128.00
2023-05-05T10:50:33.962Z,4024.00
2023-05-05T10:51:39.838Z,3812.00
2023-05-05T10:52:33.264Z,4024.00
2023-05-05T10:53:33.270Z,4036.00
2023-05-05T10:54:33.960Z,4132.00
2023-05-05T10:55:33.249Z,4380.00
2023-05-05T10:56:33.284Z,4416.00
2023-05-05T10:57:33.290Z,4500.00
2023-05-05T10:58:38.542Z,4456.00
2023-05-05T10:59:33.269Z,4592.00
2023-05-05T11:00:33.269Z,4592.00
2023-05-05T11:01:33.877Z,4652.00
2023-05-05T11:02:33.361Z,4680.00
2023-05-05T11:03:33.503Z,4764.00
2023-05-05T11:04:33.328Z,4820.00
2023-05-05T11:05:33.279Z,4824.00
2023-05-05T11:06:33.327Z,4400.00
2023-05-05T11:07:33.303Z,5020.00
2023-05-05T11:08:33.321Z,5152.00
2023-05-05T11:09:33.294Z,5220.00
2023-05-05T11:10:33.320Z,5300.00
2023-05-05T11:11:33.316Z,5340.00
2023-05-05T11:12:33.658Z,5496.00
2023-05-05T11:13:33.399Z,5556.00
2023-05-05T11:14:33.994Z,5644.00
2023-05-05T11:15:33.432Z,5108.00
2023-05-05T11:16:34.075Z,4988.00
2023-05-05T11:17:33.442Z,4760.00
2023-05-05T11:18:33.363Z,5312.00
2023-05-05T11:19:33.368Z,5960.00
2023-05-05T11:20:33.318Z,6012.00
2023-05-05T11:21:33.328Z,6128.00
2023-05-05T11:22:33.339Z,6392.00
2023-05-05T11:23:33.372Z,6248.00
2023-05-05T11:24:33.368Z,5896.00
2023-05-05T11:25:33.340Z,5552.00
2023-05-05T11:26:33.658Z,5820.00
2023-05-05T11:27:33.402Z,6256.00
2023-05-05T11:28:33.358Z,6276.00
2023-05-05T11:29:33.373Z,6336.00
2023-05-05T11:30:33.416Z,6428.00
2023-05-05T11:31:33.472Z,6344.00
2023-05-05T11:32:33.425Z,5768.00
2023-05-05T11:33:33.580Z,5904.00
2023-05-05T11:34:33.408Z,5372.00
2023-05-05T11:35:33.368Z,6308.00
2023-05-05T11:36:33.370Z,6544.00
2023-05-05T11:37:33.375Z,6432.00
2023-05-05T11:38:33.445Z,5900.00
2023-05-05T11:39:33.382Z,6668.00
2023-05-05T11:40:33.387Z,6680.00
2023-05-05T11:41:33.532Z,6684.00
2023-05-05T11:42:33.410Z,7152.00
2023-05-05T11:43:33.396Z,7108.00
2023-05-05T11:44:33.407Z,7476.00
2023-05-05T11:45:33.473Z,6744.00
2023-05-05T11:46:33.464Z,7008.00
2023-05-05T11:47:33.439Z,7036.00
2023-05-05T11:48:33.429Z,7044.00
2023-05-05T11:49:33.510Z,7252.00
2023-05-05T11:50:33.431Z,7480.00
2023-05-05T11:51:33.446Z,7612.00
2023-05-05T11:52:33.443Z,7628.00
2023-05-05T11:53:33.443Z,7128.00
2023-05-05T11:54:33.460Z,7028.00
2023-05-05T11:55:33.543Z,8144.00
2023-05-05T11:56:33.464Z,8760.00
2023-05-05T11:57:33.489Z,8304.00
2023-05-05T11:58:33.462Z,8908.00
2023-05-05T11:59:33.456Z,9196.00
2023-05-05T12:00:33.476Z,9672.00
2023-05-05T12:01:33.475Z,9152.00
2023-05-05T12:02:33.521Z,8892.00
2023-05-05T12:03:33.631Z,7488.00
2023-05-05T12:04:33.508Z,5012.00
2023-05-05T12:05:36.331Z,5096.00
2023-05-05T12:06:33.508Z,6016.00
2023-05-05T12:07:33.528Z,9116.00
2023-05-05T12:08:33.506Z,9808.00
2023-05-05T12:09:33.565Z,10132.00
2023-05-05T12:10:33.506Z,9492.00
2023-05-05T12:11:33.517Z,9168.00
2023-05-05T12:12:33.532Z,7672.00
2023-05-05T12:13:33.570Z,8252.00
2023-05-05T12:14:33.522Z,10392.00
2023-05-05T12:15:33.560Z,7844.00
2023-05-05T12:16:33.591Z,11056.00
2023-05-05T12:17:33.585Z,11080.00
2023-05-05T12:18:33.535Z,8964.00
2023-05-05T12:19:33.583Z,9808.00
2023-05-05T12:20:33.603Z,9972.00
2023-05-05T12:21:33.662Z,9692.00
2023-05-05T12:22:33.580Z,8856.00
2023-05-05T12:23:33.573Z,8140.00
2023-05-05T12:24:33.580Z,5700.00
2023-05-05T12:25:33.597Z,6580.00
2023-05-05T12:26:33.583Z,6520.00
2023-05-05T12:27:33.603Z,6652.00
2023-05-05T12:28:33.599Z,7124.00
2023-05-05T12:29:33.612Z,7584.00
2023-05-05T12:30:33.638Z,7052.00
2023-05-05T12:31:33.657Z,6820.00
2023-05-05T12:32:33.644Z,6388.00
2023-05-05T12:33:33.630Z,6268.00
2023-05-05T12:34:33.625Z,6476.00
2023-05-05T12:35:33.642Z,6508.00
2023-05-05T12:36:33.662Z,6812.00
2023-05-05T12:37:33.806Z,7808.00
2023-05-05T12:38:33.635Z,8264.00
2023-05-05T12:39:33.643Z,7716.00
2023-05-05T12:40:33.666Z,7408.00
2023-05-05T12:41:33.677Z,6208.00
2023-05-05T12:42:33.704Z,5376.00
2023-05-05T12:43:33.688Z,5812.00
2023-05-05T12:44:33.671Z,5696.00
2023-05-05T12:45:33.711Z,5248.00
2023-05-05T12:46:33.826Z,4696.00
2023-05-05T12:47:33.927Z,4456.00
2023-05-05T12:50:06.339Z,4252.00
2023-05-05T12:51:06.230Z,4360.00
2023-05-05T12:52:06.227Z,4560.00
2023-05-05T12:53:06.344Z,4800.00
2023-05-05T12:54:06.258Z,5036.00
2023-05-05T12:55:06.439Z,5148.00
2023-05-05T12:56:06.249Z,5160.00
2023-05-05T12:57:06.266Z,5184.00
2023-05-05T12:58:06.258Z,5180.00
2023-05-05T12:59:06.302Z,5328.00
2023-05-05T13:00:06.492Z,5620.00
2023-05-05T13:01:06.302Z,6260.00
2023-05-05T13:02:06.290Z,6924.00
2023-05-05T13:03:06.420Z,7496.00
2023-05-05T13:04:06.286Z,7948.00
2023-05-05T13:05:06.477Z,8332.00
2023-05-05T13:06:06.287Z,8220.00
2023-05-05T13:07:06.280Z,7972.00
2023-05-05T13:08:06.309Z,7324.00
2023-05-05T13:09:06.388Z,7192.00
2023-05-05T13:10:06.325Z,6128.00
2023-05-05T13:11:06.310Z,5024.00
2023-05-05T13:12:06.316Z,4836.00
2023-05-05T13:13:06.330Z,4428.00
2023-05-05T13:14:06.317Z,4008.00
2023-05-05T13:15:06.477Z,3896.00
2023-05-05T13:16:06.353Z,3808.00
2023-05-05T13:17:06.314Z,3872.00
2023-05-05T13:18:06.396Z,4036.00
2023-05-05T13:19:06.343Z,4356.00
2023-05-05T13:20:06.414Z,4528.00
2023-05-05T13:21:06.307Z,4744.00
2023-05-05T13:22:06.317Z,5104.00
2023-05-05T13:23:06.321Z,5416.00
2023-05-05T13:24:22.930Z,5708.00
2023-05-05T13:25:06.430Z,6088.00
2023-05-05T13:26:06.348Z,6252.00
2023-05-05T13:27:06.327Z,6556.00
2023-05-05T13:28:06.353Z,6916.00
2023-05-05T13:29:06.365Z,6696.00
2023-05-05T13:30:06.422Z,5580.00
2023-05-05T13:31:06.400Z,5324.00
2023-05-05T13:32:06.366Z,5348.00
2023-05-05T13:33:06.446Z,5196.00
2023-05-05T13:34:06.343Z,5472.00
2023-05-05T13:35:06.468Z,5776.00
2023-05-05T13:36:06.393Z,6012.00
2023-05-05T13:37:06.375Z,6428.00
2023-05-05T13:38:06.367Z,7704.00
2023-05-05T13:39:06.356Z,9580.00
2023-05-05T13:40:06.384Z,10104.00
2023-05-05T13:41:06.485Z,10156.00
2023-05-05T13:42:06.419Z,11680.00
2023-05-05T13:43:06.353Z,12340.00
2023-05-05T13:44:06.354Z,11400.00
2023-05-05T13:45:06.450Z,9784.00
2023-05-05T13:46:19.115Z,8628.00
2023-05-05T13:47:06.425Z,6900.00
2023-05-05T13:48:06.381Z,5276.00
2023-05-05T13:49:06.373Z,4556.00
2023-05-05T13:50:06.440Z,4260.00
2023-05-05T13:51:06.394Z,4396.00
2023-05-05T13:52:06.391Z,4672.00
2023-05-05T13:53:06.381Z,4704.00
2023-05-05T13:54:06.388Z,5144.00
2023-05-05T13:55:06.492Z,4932.00
2023-05-05T13:56:06.397Z,5128.00
2023-05-05T13:57:06.526Z,5448.00
2023-05-05T13:58:06.388Z,5692.00
2023-05-05T13:59:06.428Z,5868.00
2023-05-05T14:00:06.446Z,6560.00
2023-05-05T14:01:06.501Z,6320.00
2023-05-05T14:02:06.386Z,6652.00
2023-05-05T14:03:06.415Z,7788.00
2023-05-05T14:04:06.487Z,10292.00
2023-05-05T14:05:06.531Z,12488.00
2023-05-05T14:06:06.401Z,9008.00
2023-05-05T14:07:06.440Z,8348.00
2023-05-05T14:08:06.416Z,7652.00
2023-05-05T14:09:06.654Z,6620.00
2023-05-05T14:10:06.431Z,5716.00
2023-05-05T14:11:07.045Z,5416.00
2023-05-05T14:12:06.420Z,4716.00
2023-05-05T14:13:06.453Z,4404.00
2023-05-05T14:14:06.444Z,4124.00
2023-05-05T14:15:06.706Z,3824.00
2023-05-05T14:16:06.462Z,3128.00
2023-05-05T14:17:06.484Z,2880.00
2023-05-05T14:18:06.530Z,2680.00
2023-05-05T14:19:06.465Z,2572.00
2023-05-05T14:20:06.582Z,2488.00
2023-05-05T14:21:06.453Z,2440.00
2023-05-05T14:22:06.493Z,2404.00
2023-05-05T14:23:06.447Z,2396.00
2023-05-05T14:24:06.432Z,2384.00
2023-05-05T14:25:06.725Z,2316.00
2023-05-05T14:26:06.464Z,2180.00
2023-05-05T14:27:06.500Z,2052.00
2023-05-05T14:28:06.455Z,1920.00
2023-05-05T14:29:06.594Z,1800.00
2023-05-05T14:30:06.462Z,1688.00
2023-05-05T14:31:06.464Z,1592.00
2023-05-05T14:32:06.537Z,1496.00
2023-05-05T14:33:06.482Z,1388.00
2023-05-05T14:34:06.468Z,1284.00
2023-05-05T14:35:06.643Z,1192.00
2023-05-05T14:36:06.462Z,1096.00
2023-05-05T14:37:06.467Z,1024.00
2023-05-05T14:38:06.493Z,980.00
2023-05-05T14:39:06.487Z,964.00
2023-05-05T14:40:06.584Z,960.00
2023-05-05T14:41:06.500Z,948.00
2023-05-05T14:42:06.477Z,920.00
2023-05-05T14:43:06.458Z,896.00
2023-05-05T14:44:06.467Z,896.00
2023-05-05T14:45:06.991Z,908.00
2023-05-05T14:46:06.863Z,928.00
2023-05-05T14:47:06.476Z,948.00
2023-05-05T14:48:06.465Z,932.00
2023-05-05T14:49:06.460Z,876.00
2023-05-05T14:50:06.492Z,792.00
2023-05-05T14:51:06.468Z,716.00
2023-05-05T14:52:06.494Z,688.00
2023-05-05T14:53:06.501Z,716.00
2023-05-05T14:54:14.275Z,748.00
2023-05-05T14:55:06.662Z,744.00
2023-05-05T14:56:06.460Z,732.00
2023-05-05T14:57:06.466Z,712.00
2023-05-05T14:58:06.465Z,692.00
2023-05-05T14:59:06.487Z,660.00
2023-05-05T15:00:06.481Z,620.00
2023-05-05T15:01:06.581Z,548.00
2023-05-05T15:02:06.480Z,440.00
2023-05-05T15:03:06.502Z,336.00
2023-05-05T15:04:06.473Z,228.00
2023-05-05T15:05:06.584Z,164.00
2023-05-05T15:06:06.486Z,120.00
2023-05-05T15:07:06.494Z,92.00
2023-05-05T15:08:06.475Z,80.00
2023-05-05T15:09:06.531Z,80.00
2023-05-05T15:10:06.496Z,68.00
2023-05-05T15:11:06.465Z,100.00
2023-05-05T15:12:06.470Z,148.00
2023-05-05T15:13:06.489Z,180.00
2023-05-05T15:14:06.473Z,220.00
2023-05-05T15:15:06.574Z,276.00
2023-05-05T15:16:06.495Z,296.00
2023-05-05T15:17:06.573Z,348.00
2023-05-05T15:18:06.503Z,388.00
2023-05-05T15:19:06.496Z,428.00
2023-05-05T15:20:06.487Z,456.00
2023-05-05T15:21:06.465Z,484.00
2023-05-05T15:22:06.483Z,456.00
2023-05-05T15:23:06.477Z,460.00
2023-05-05T15:24:06.495Z,488.00
2023-05-05T15:25:06.658Z,536.00
2023-05-05T15:26:06.489Z,556.00
2023-05-05T15:27:06.464Z,576.00
2023-05-05T15:28:06.462Z,568.00
2023-05-05T15:29:06.481Z,560.00
2023-05-05T15:30:06.492Z,568.00
2023-05-05T15:31:06.458Z,616.00
2023-05-05T15:32:06.532Z,660.00
2023-05-05T15:33:06.603Z,704.00
2023-05-05T15:34:06.459Z,744.00
2023-05-05T15:35:06.601Z,792.00
2023-05-05T15:36:06.491Z,824.00
2023-05-05T15:37:06.482Z,860.00
2023-05-05T15:38:06.464Z,888.00
2023-05-05T15:39:06.482Z,908.00
2023-05-05T15:40:06.504Z,916.00
2023-05-05T15:41:06.463Z,916.00
2023-05-05T15:42:06.448Z,900.00
2023-05-05T15:43:06.463Z,888.00
2023-05-05T15:44:06.456Z,880.00
2023-05-05T15:45:06.681Z,860.00
2023-05-05T15:46:06.590Z,836.00
2023-05-05T15:47:06.487Z,820.00
2023-05-05T15:48:06.536Z,800.00
2023-05-05T15:49:06.533Z,784.00
2023-05-05T15:50:06.543Z,768.00
2023-05-05T15:51:06.466Z,752.00
2023-05-05T15:52:06.435Z,744.00
2023-05-05T15:53:06.443Z,740.00
2023-05-05T15:54:06.429Z,736.00
2023-05-05T15:55:06.588Z,732.00
2023-05-05T15:56:06.456Z,724.00
2023-05-05T15:57:06.431Z,716.00
2023-05-05T15:58:06.437Z,708.00
2023-05-05T15:59:06.433Z,696.00
2023-05-05T16:00:06.432Z,684.00
2023-05-05T16:01:06.517Z,676.00
2023-05-05T16:12:44.608Z,552.00
2023-05-05T16:13:44.466Z,524.00
2023-05-05T16:14:44.453Z,500.00
2023-05-05T16:15:44.463Z,472.00
2023-05-05T16:16:44.458Z,440.00
2023-05-05T16:17:44.478Z,408.00
2023-05-05T16:18:44.413Z,372.00
2023-05-05T16:19:44.436Z,344.00
2023-05-05T16:20:44.443Z,324.00
2023-05-05T16:21:44.440Z,308.00
2023-05-05T16:22:44.406Z,304.00
2023-05-05T16:23:44.397Z,324.00
2023-05-05T16:24:44.502Z,348.00
2023-05-05T16:25:44.441Z,376.00
2023-05-05T16:26:44.421Z,384.00
2023-05-05T16:27:44.403Z,416.00
2023-05-05T16:28:44.570Z,428.00
2023-05-05T16:29:44.389Z,440.00
2023-05-05T16:30:44.393Z,432.00
2023-05-05T16:31:44.491Z,428.00
2023-05-05T16:32:44.435Z,424.00
2023-05-05T16:33:44.410Z,432.00
2023-05-05T16:34:44.384Z,428.00
2023-05-05T16:35:44.379Z,436.00
2023-05-05T16:36:44.624Z,452.00
2023-05-05T16:37:44.390Z,436.00
2023-05-05T16:38:44.372Z,476.00
2023-05-05T16:39:44.428Z,492.00
2023-05-05T16:40:44.364Z,516.00
2023-05-05T16:41:44.371Z,544.00
2023-05-05T16:42:44.704Z,516.00
2023-05-05T16:43:44.381Z,520.00